Joetsu, Japan
Current Conditions -  °F | °C
As of 4:00 PM on Friday 19 Dec 2014 (Local Time) from RJNT Reporting Station
Few Clouds Few Clouds  
Wind Chill: 41°   Ceiling: Unl
Heat Index: 41°   Visibility: 6mi
Dew Point: 30°   Wind: 2mph
Humidity: 65%   Direction: NA
Pressure: 30.42"   Gusts: NA
Location:  37.12°N, 138.25°E
Report Text: RJNT 190700Z VRB02KT 9999 FEW030 05/M01 Q1030
Loading
Personal Weather Stations






























Interactive Weather Map New forecast layout! Learn more

10-Day Weather Forecast

Advertisements
Track Severe Weather on mobile